createdAt,value
2023-03-03T00:01:07.269Z,71.00
2023-03-03T00:03:35.014Z,70.90
2023-03-03T00:06:04.814Z,70.90
2023-03-03T00:08:32.586Z,71.10
2023-03-03T00:11:00.921Z,71.40
2023-03-03T00:13:29.043Z,71.80
2023-03-03T00:16:12.779Z,72.00
2023-03-03T00:18:44.489Z,72.20
2023-03-03T00:21:33.570Z,72.20
2023-03-03T00:24:20.470Z,72.30
2023-03-03T00:26:55.774Z,71.80
2023-03-03T00:29:36.060Z,71.60
2023-03-03T00:32:38.273Z,71.60
2023-03-03T00:35:39.823Z,71.70
2023-03-03T00:38:18.194Z,71.60
2023-03-03T00:40:47.632Z,71.50
2023-03-03T00:43:21.247Z,71.70
2023-03-03T00:45:55.236Z,71.90
2023-03-03T00:48:42.876Z,71.90
2023-03-03T00:51:29.386Z,71.90
2023-03-03T00:53:57.926Z,71.90
2023-03-03T00:56:25.537Z,71.90
2023-03-03T00:58:53.434Z,71.60
2023-03-03T01:01:23.026Z,71.60
2023-03-03T01:03:53.377Z,71.60
2023-03-03T01:06:20.845Z,71.50
2023-03-03T01:08:48.179Z,71.60
2023-03-03T01:11:24.960Z,71.80
2023-03-03T01:13:53.351Z,71.80
2023-03-03T01:16:20.927Z,71.80
2023-03-03T01:18:48.627Z,71.80
2023-03-03T01:21:16.009Z,71.80
2023-03-03T01:23:43.526Z,71.40
2023-03-03T01:26:11.326Z,71.40
2023-03-03T01:28:39.840Z,71.50
2023-03-03T01:31:07.437Z,71.20
2023-03-03T01:33:36.318Z,71.20
2023-03-03T01:36:04.390Z,71.80
2023-03-03T01:38:31.786Z,71.20
2023-03-03T01:41:00.630Z,71.40
2023-03-03T01:43:29.700Z,71.90
2023-03-03T01:45:57.237Z,71.90
2023-03-03T01:48:45.871Z,71.80
2023-03-03T01:51:20.563Z,72.60
2023-03-03T01:53:58.360Z,72.10
2023-03-03T01:56:27.013Z,72.20
2023-03-03T01:59:01.899Z,72.40
2023-03-03T02:01:31.231Z,72.50
2023-03-03T02:04:00.387Z,72.50
2023-03-03T02:06:35.897Z,72.70
2023-03-03T02:09:16.820Z,72.80
2023-03-03T02:11:47.134Z,73.10
2023-03-03T02:14:14.850Z,73.10
2023-03-03T02:16:44.040Z,73.40
2023-03-03T02:19:36.185Z,73.60
2023-03-03T02:22:04.186Z,73.90
2023-03-03T02:24:45.945Z,74.30
2023-03-03T02:27:14.525Z,74.60
2023-03-03T02:29:43.300Z,74.40
2023-03-03T02:32:11.577Z,73.70
2023-03-03T02:34:50.637Z,73.20
2023-03-03T02:37:19.599Z,72.70
2023-03-03T02:39:47.031Z,72.50
2023-03-03T02:42:19.983Z,72.30
2023-03-03T02:44:51.752Z,73.00
2023-03-03T02:47:19.480Z,72.40
2023-03-03T02:49:47.125Z,72.40
2023-03-03T02:52:15.079Z,72.40
2023-03-03T02:54:45.997Z,72.70
2023-03-03T02:57:13.998Z,73.00
2023-03-03T02:59:41.264Z,73.10
2023-03-03T03:02:13.870Z,73.10
2023-03-03T03:04:42.436Z,73.30
2023-03-03T03:07:11.963Z,73.30
2023-03-03T03:09:40.136Z,73.50
2023-03-03T03:12:07.668Z,73.40
2023-03-03T03:14:36.203Z,73.20
2023-03-03T03:17:05.480Z,73.10
2023-03-03T03:19:33.094Z,72.90
2023-03-03T03:22:02.664Z,73.10
2023-03-03T03:24:32.213Z,73.90
2023-03-03T03:27:04.184Z,73.10
2023-03-03T03:29:31.521Z,73.20
2023-03-03T03:31:58.956Z,73.00
2023-03-03T03:34:26.730Z,73.20
2023-03-03T03:36:56.254Z,73.30
2023-03-03T03:39:25.817Z,73.40
2023-03-03T03:41:54.051Z,73.50
2023-03-03T03:44:23.934Z,73.40
2023-03-03T03:46:51.534Z,74.10
2023-03-03T03:49:20.804Z,73.50
2023-03-03T03:51:49.786Z,73.50
2023-03-03T03:54:20.333Z,73.50
2023-03-03T03:56:48.353Z,73.70
2023-03-03T03:59:15.833Z,73.80
2023-03-03T04:01:43.754Z,74.00
2023-03-03T04:04:11.952Z,74.00
2023-03-03T04:06:39.962Z,73.90
2023-03-03T04:09:07.502Z,74.10
2023-03-03T04:11:35.632Z,74.30
2023-03-03T04:14:05.214Z,74.40
2023-03-03T04:16:33.750Z,74.30
2023-03-03T04:19:01.181Z,74.30
2023-03-03T04:21:29.030Z,74.30
2023-03-03T04:23:59.505Z,74.50
2023-03-03T04:26:29.405Z,74.70
2023-03-03T04:28:57.754Z,74.80
2023-03-03T04:31:25.874Z,74.90
2023-03-03T04:33:53.757Z,75.00
2023-03-03T04:36:23.009Z,75.10
2023-03-03T04:38:50.442Z,75.30
2023-03-03T04:41:18.811Z,75.30
2023-03-03T04:43:46.480Z,75.20
2023-03-03T04:46:14.388Z,75.20
2023-03-03T04:48:41.900Z,75.10
2023-03-03T04:51:10.363Z,75.10
2023-03-03T04:53:38.968Z,75.00
2023-03-03T04:56:08.297Z,75.00
2023-03-03T04:58:37.052Z,75.20
2023-03-03T05:01:04.965Z,75.40
2023-03-03T05:03:34.163Z,75.50
2023-03-03T05:06:01.460Z,75.70
2023-03-03T05:08:28.913Z,76.50
2023-03-03T05:10:56.220Z,75.90
2023-03-03T05:13:23.621Z,75.80
2023-03-03T05:15:53.033Z,75.70
2023-03-03T05:18:21.007Z,75.60
2023-03-03T05:20:49.595Z,75.90
2023-03-03T05:23:17.231Z,75.90
2023-03-03T05:25:45.229Z,75.90
2023-03-03T05:28:12.494Z,75.90
2023-03-03T05:30:40.277Z,76.10
2023-03-03T05:33:07.699Z,76.80
2023-03-03T05:35:35.056Z,76.10
2023-03-03T05:38:05.433Z,76.00
2023-03-03T05:40:33.361Z,76.20
2023-03-03T05:43:00.897Z,76.40
2023-03-03T05:45:28.581Z,76.50
2023-03-03T05:47:56.333Z,76.60
2023-03-03T05:50:24.888Z,76.70
2023-03-03T05:52:52.889Z,76.90
2023-03-03T05:55:20.605Z,76.80
2023-03-03T05:57:47.848Z,76.70
2023-03-03T06:00:16.596Z,76.50
2023-03-03T06:02:45.122Z,76.70
2023-03-03T06:05:12.464Z,76.60
2023-03-03T06:07:39.965Z,76.40
2023-03-03T06:10:08.361Z,76.30
2023-03-03T06:12:39.141Z,76.00
2023-03-03T06:15:07.454Z,75.70
2023-03-03T06:17:34.989Z,75.50
2023-03-03T06:20:03.337Z,75.50
2023-03-03T06:22:31.083Z,75.20
2023-03-03T06:24:58.671Z,75.10
2023-03-03T06:27:25.954Z,74.60
2023-03-03T06:29:53.199Z,74.60
2023-03-03T06:32:20.535Z,74.50
2023-03-03T06:34:47.994Z,74.30
2023-03-03T06:37:15.270Z,74.20
2023-03-03T06:39:42.541Z,74.20
2023-03-03T06:42:09.903Z,74.30
2023-03-03T06:44:37.407Z,74.10
2023-03-03T06:47:05.911Z,73.70
2023-03-03T06:49:33.274Z,73.40
2023-03-03T06:52:05.686Z,73.30
2023-03-03T06:54:33.145Z,73.00
2023-03-03T06:57:08.963Z,73.00
2023-03-03T06:59:36.469Z,72.80
2023-03-03T07:02:18.989Z,72.60
2023-03-03T07:04:47.173Z,72.60
2023-03-03T07:07:20.513Z,72.40
2023-03-03T07:09:50.691Z,72.40
2023-03-03T07:12:22.162Z,72.40
2023-03-03T07:15:10.127Z,72.30
2023-03-03T07:17:42.570Z,71.40
2023-03-03T07:20:28.187Z,71.10
2023-03-03T07:22:55.502Z,71.30
2023-03-03T07:25:35.336Z,71.00
2023-03-03T07:28:22.551Z,70.70
2023-03-03T07:30:50.183Z,70.20
2023-03-03T07:33:41.503Z,70.30
2023-03-03T07:36:35.992Z,70.60
2023-03-03T07:39:40.852Z,70.30
2023-03-03T07:42:33.562Z,70.10
2023-03-03T07:45:36.277Z,69.30
2023-03-03T07:48:29.358Z,69.00
2023-03-03T07:51:04.121Z,68.90
2023-03-03T07:53:34.920Z,68.80
2023-03-03T07:56:02.576Z,68.50
2023-03-03T07:58:41.273Z,68.30
2023-03-03T08:01:29.392Z,68.10
2023-03-03T08:03:57.364Z,68.10
2023-03-03T08:06:36.597Z,67.60
2023-03-03T08:09:31.608Z,67.20
2023-03-03T08:12:19.339Z,66.70
2023-03-03T08:14:47.397Z,66.20
2023-03-03T08:17:18.156Z,65.60
2023-03-03T08:19:45.551Z,65.70
2023-03-03T08:22:17.455Z,65.70
2023-03-03T08:24:44.698Z,65.80
2023-03-03T08:27:12.019Z,65.40
2023-03-03T08:29:39.281Z,64.80
2023-03-03T08:32:07.050Z,64.50
2023-03-03T08:34:34.379Z,64.50
2023-03-03T08:37:01.699Z,63.90
2023-03-03T08:39:29.281Z,63.30
2023-03-03T08:41:56.642Z,63.70
2023-03-03T08:44:24.048Z,63.30
2023-03-03T08:46:51.562Z,62.70
2023-03-03T08:49:19.354Z,61.90
2023-03-03T08:51:47.004Z,61.50
2023-03-03T08:54:14.412Z,62.10
2023-03-03T08:56:41.817Z,61.20
2023-03-03T08:59:09.410Z,61.40
2023-03-03T09:01:36.803Z,62.40
2023-03-03T09:04:04.355Z,61.00
2023-03-03T09:06:31.631Z,59.80
2023-03-03T09:08:58.994Z,60.00
2023-03-03T09:11:28.716Z,60.00
2023-03-03T09:14:12.675Z,59.60
2023-03-03T09:16:45.272Z,59.10
2023-03-03T09:19:30.934Z,58.30
2023-03-03T09:22:19.748Z,58.40
2023-03-03T09:24:48.796Z,58.60
2023-03-03T09:27:27.453Z,58.80
2023-03-03T09:29:54.938Z,59.00
2023-03-03T09:32:26.920Z,59.00
2023-03-03T09:34:54.519Z,57.90
2023-03-03T09:37:34.111Z,57.60
2023-03-03T09:40:07.135Z,58.60
2023-03-03T09:43:00.741Z,58.70
2023-03-03T09:45:41.903Z,58.70
2023-03-03T09:48:36.369Z,58.40
2023-03-03T09:51:13.979Z,58.10
2023-03-03T09:53:52.987Z,58.10
2023-03-03T09:56:28.727Z,58.60
2023-03-03T09:59:09.730Z,58.60
2023-03-03T10:01:55.932Z,58.50
2023-03-03T10:04:44.196Z,58.80
2023-03-03T10:07:30.288Z,57.50
2023-03-03T10:10:03.370Z,58.00
2023-03-03T10:12:35.997Z,57.70
2023-03-03T10:15:27.518Z,57.40
2023-03-03T10:18:32.896Z,57.60
2023-03-03T10:21:22.618Z,57.90
2023-03-03T10:24:19.761Z,58.20
2023-03-03T10:27:32.287Z,58.00
2023-03-03T10:30:39.556Z,57.70
2023-03-03T10:33:20.769Z,57.90
2023-03-03T10:36:28.799Z,57.60
2023-03-03T10:39:23.285Z,57.20
2023-03-03T10:42:11.328Z,56.70
2023-03-03T10:44:41.670Z,57.00
2023-03-03T10:47:17.780Z,56.70
2023-03-03T10:49:48.431Z,55.80
2023-03-03T10:52:34.178Z,56.00
2023-03-03T10:55:13.734Z,55.70
2023-03-03T10:58:02.173Z,55.60
2023-03-03T11:00:46.833Z,55.10
2023-03-03T11:03:43.315Z,55.00
2023-03-03T11:07:05.889Z,54.90
2023-03-03T11:09:41.210Z,53.90
2023-03-03T11:12:28.762Z,53.40
2023-03-03T11:15:11.190Z,53.20
2023-03-03T11:18:06.927Z,53.00
2023-03-03T11:20:51.294Z,53.30
2023-03-03T11:23:32.364Z,52.00
2023-03-03T11:26:34.513Z,51.70
2023-03-03T11:29:37.584Z,51.70
2023-03-03T11:32:18.422Z,51.50
2023-03-03T11:34:45.902Z,51.30
2023-03-03T11:37:27.400Z,51.60
2023-03-03T11:40:02.582Z,51.10
2023-03-03T11:43:01.506Z,50.70
2023-03-03T11:45:46.600Z,51.60
2023-03-03T11:48:38.148Z,52.30
2023-03-03T11:51:31.009Z,51.50
2023-03-03T11:54:05.728Z,51.60
2023-03-03T11:56:45.481Z,52.30
2023-03-03T11:59:34.187Z,52.50
2023-03-03T12:02:32.322Z,51.70
2023-03-03T12:05:08.651Z,51.80
2023-03-03T12:07:47.196Z,51.70
2023-03-03T12:10:37.747Z,52.00
2023-03-03T12:13:45.902Z,52.30
2023-03-03T12:16:21.299Z,52.00
2023-03-03T12:18:48.648Z,51.00
2023-03-03T12:21:27.399Z,51.60
2023-03-03T12:24:23.955Z,51.40
2023-03-03T12:26:51.229Z,51.40
2023-03-03T12:29:41.861Z,51.30
2023-03-03T12:32:41.441Z,50.70
2023-03-03T12:35:35.751Z,51.30
2023-03-03T12:38:11.349Z,51.20
2023-03-03T12:40:53.658Z,50.10
2023-03-03T12:43:58.768Z,50.80
2023-03-03T12:46:53.274Z,51.90
2023-03-03T12:49:21.840Z,50.60
2023-03-03T12:51:57.938Z,50.20
2023-03-03T12:54:28.159Z,50.20
2023-03-03T12:57:13.973Z,50.20
2023-03-03T13:00:15.522Z,50.50
2023-03-03T13:03:04.393Z,49.70
2023-03-03T13:06:20.000Z,50.10
2023-03-03T13:08:56.130Z,49.70
2023-03-03T13:12:05.425Z,50.00
2023-03-03T13:14:40.075Z,49.00
2023-03-03T13:17:31.206Z,48.60
2023-03-03T13:20:01.081Z,48.00
2023-03-03T13:22:52.024Z,47.60
2023-03-03T13:25:19.323Z,47.60
2023-03-03T13:27:50.620Z,47.50
2023-03-03T13:30:26.310Z,47.90
2023-03-03T13:33:04.373Z,48.30
2023-03-03T13:35:50.062Z,47.50
2023-03-03T13:38:29.725Z,48.10
2023-03-03T13:41:10.221Z,47.70
2023-03-03T13:43:49.514Z,48.10
2023-03-03T13:46:31.953Z,48.40
2023-03-03T13:49:47.726Z,47.90
2023-03-03T13:52:25.510Z,48.60
2023-03-03T13:55:02.032Z,48.40
2023-03-03T13:57:48.712Z,48.90
2023-03-03T14:00:40.466Z,49.10
2023-03-03T14:03:29.338Z,48.90
2023-03-03T14:06:05.593Z,49.10
2023-03-03T14:08:32.813Z,49.20
2023-03-03T14:11:12.077Z,48.80
2023-03-03T14:14:19.745Z,48.90
2023-03-03T14:16:55.969Z,49.00
2023-03-03T14:19:32.813Z,49.40
2023-03-03T14:22:23.598Z,49.80
2023-03-03T14:25:00.000Z,49.10
2023-03-03T14:27:34.175Z,49.00
2023-03-03T14:30:27.388Z,49.30
2023-03-03T14:33:10.082Z,48.70
2023-03-03T14:35:40.898Z,49.10
2023-03-03T14:38:34.445Z,49.30
2023-03-03T14:41:12.070Z,48.70
2023-03-03T14:43:42.079Z,48.70
2023-03-03T14:46:40.371Z,48.50
2023-03-03T14:49:16.359Z,49.10
2023-03-03T14:51:49.945Z,48.90
2023-03-03T14:54:25.475Z,49.20
2023-03-03T14:57:49.038Z,49.10
2023-03-03T15:00:19.454Z,49.20
2023-03-03T15:02:53.166Z,49.00
2023-03-03T15:05:23.295Z,48.70
2023-03-03T15:08:04.748Z,49.40
2023-03-03T15:10:37.286Z,49.40
2023-03-03T15:13:20.224Z,49.50
2023-03-03T15:15:59.745Z,50.10
2023-03-03T15:18:28.209Z,50.30
2023-03-03T15:21:13.029Z,50.30
2023-03-03T15:23:57.996Z,50.40
2023-03-03T15:26:59.529Z,49.90
2023-03-03T15:29:35.438Z,49.80
2023-03-03T15:32:32.993Z,49.80
2023-03-03T15:35:07.125Z,49.60
2023-03-03T15:38:17.981Z,48.10
2023-03-03T15:40:52.518Z,47.10
2023-03-03T15:43:54.270Z,45.00
2023-03-03T15:46:34.978Z,45.00
2023-03-03T15:49:16.559Z,45.30
2023-03-03T15:52:02.440Z,44.00
2023-03-03T15:54:49.353Z,44.40
2023-03-03T15:57:41.125Z,44.40
2023-03-03T16:00:47.265Z,43.80
2023-03-03T16:03:20.914Z,42.70
2023-03-03T16:06:05.344Z,42.50
2023-03-03T16:08:49.792Z,42.90
2023-03-03T16:11:17.111Z,42.70
2023-03-03T16:14:07.162Z,42.70
2023-03-03T16:16:37.325Z,42.50
2023-03-03T16:19:41.236Z,42.90
2023-03-03T16:22:30.409Z,43.00
2023-03-03T16:25:20.853Z,43.90
2023-03-03T16:27:54.108Z,43.40
2023-03-03T16:30:56.538Z,43.30
2023-03-03T16:33:59.823Z,43.60
2023-03-03T16:36:54.928Z,43.90
2023-03-03T16:39:41.204Z,44.30
2023-03-03T16:42:33.977Z,44.60
2023-03-03T16:45:01.414Z,44.90
2023-03-03T16:47:57.689Z,45.20
2023-03-03T16:50:40.939Z,45.70
2023-03-03T16:53:43.081Z,46.20
2023-03-03T16:56:33.907Z,46.80
2023-03-03T16:59:32.452Z,47.50
2023-03-03T17:02:05.744Z,47.60
2023-03-03T17:04:51.604Z,47.80
2023-03-03T17:07:43.469Z,48.40
2023-03-03T17:10:20.752Z,49.10
2023-03-03T17:13:00.103Z,49.60
2023-03-03T17:15:41.225Z,50.00
2023-03-03T17:18:40.559Z,50.30
2023-03-03T17:21:42.997Z,51.10
2023-03-03T17:24:21.253Z,52.40
2023-03-03T17:27:25.282Z,52.70
2023-03-03T17:30:12.834Z,53.00
2023-03-03T17:33:01.738Z,53.10
2023-03-03T17:35:41.159Z,53.10
2023-03-03T17:38:27.549Z,53.50
2023-03-03T17:41:07.043Z,54.00
2023-03-03T17:43:55.236Z,54.00
2023-03-03T17:46:25.579Z,54.40
2023-03-03T17:49:15.835Z,54.50
2023-03-03T17:51:43.084Z,54.70
2023-03-03T17:54:22.087Z,54.60
2023-03-03T17:57:24.423Z,54.40
2023-03-03T18:00:10.523Z,54.10
2023-03-03T18:03:11.455Z,53.70
2023-03-03T18:05:57.436Z,53.00
2023-03-03T18:08:55.771Z,52.50
2023-03-03T18:11:40.231Z,52.10
2023-03-03T18:14:22.824Z,51.90
2023-03-03T18:17:24.349Z,51.90
2023-03-03T18:20:04.681Z,51.70
2023-03-03T18:22:34.140Z,51.60
2023-03-03T18:25:45.013Z,51.60
2023-03-03T18:28:21.509Z,51.70
2023-03-03T18:31:00.315Z,51.80
2023-03-03T18:33:44.312Z,51.90
2023-03-03T18:36:36.281Z,52.20
2023-03-03T18:39:06.244Z,52.50
2023-03-03T18:42:11.814Z,52.70
2023-03-03T18:44:39.535Z,53.00
2023-03-03T18:47:07.237Z,53.20
2023-03-03T18:50:07.351Z,53.40
2023-03-03T18:52:36.394Z,53.50
2023-03-03T18:55:09.522Z,53.50
2023-03-03T18:57:38.766Z,53.60
2023-03-03T19:00:15.563Z,53.90
2023-03-03T19:02:54.017Z,53.80
2023-03-03T19:05:28.962Z,53.80
2023-03-03T19:08:03.470Z,53.80
2023-03-03T19:10:40.041Z,53.80
2023-03-03T19:13:33.289Z,53.80
2023-03-03T19:16:08.991Z,54.00
2023-03-03T19:18:56.356Z,54.10
2023-03-03T19:21:38.103Z,54.20
2023-03-03T19:24:12.503Z,54.30
2023-03-03T19:27:15.111Z,54.50
2023-03-03T19:29:59.156Z,55.00
2023-03-03T19:33:01.380Z,55.50
2023-03-03T19:35:59.096Z,56.00
2023-03-03T19:38:53.664Z,56.80
2023-03-03T19:41:20.887Z,56.80
2023-03-03T19:43:54.184Z,56.80
2023-03-03T19:46:52.146Z,57.00
2023-03-03T19:49:48.717Z,58.20
2023-03-03T19:52:28.662Z,57.80
2023-03-03T19:55:01.864Z,58.80
2023-03-03T19:57:44.108Z,59.30
2023-03-03T20:00:20.467Z,59.70
2023-03-03T20:03:26.718Z,59.70
2023-03-03T20:06:07.616Z,59.70
2023-03-03T20:08:39.507Z,59.90
2023-03-03T20:11:16.118Z,60.20
2023-03-03T20:14:00.995Z,61.00
2023-03-03T20:16:41.870Z,61.20
2023-03-03T20:19:41.739Z,61.50
2023-03-03T20:22:31.584Z,61.70
2023-03-03T20:25:15.520Z,62.00
2023-03-03T20:28:00.441Z,62.50
2023-03-03T20:30:56.645Z,62.80
2023-03-03T20:33:40.221Z,63.20
2023-03-03T20:36:14.102Z,63.30
2023-03-03T20:38:51.920Z,63.40
2023-03-03T20:41:40.353Z,63.40
2023-03-03T20:44:07.644Z,63.60
2023-03-03T20:46:53.196Z,63.60
2023-03-03T20:49:38.784Z,63.90
2023-03-03T20:52:15.291Z,64.10
2023-03-03T20:55:10.567Z,64.10
2023-03-03T20:57:38.559Z,64.30
2023-03-03T21:00:26.537Z,63.90
2023-03-03T21:03:00.258Z,63.90
2023-03-03T21:05:27.901Z,63.90
2023-03-03T21:08:04.547Z,64.00
2023-03-03T21:10:37.494Z,64.20
2023-03-03T21:13:29.475Z,64.40
2023-03-03T21:16:03.879Z,64.70
2023-03-03T21:18:32.160Z,64.70
2023-03-03T21:20:59.427Z,64.80
2023-03-03T21:23:26.742Z,65.00
2023-03-03T21:25:56.741Z,65.40
2023-03-03T21:28:32.747Z,65.70
2023-03-03T21:31:10.157Z,65.80
2023-03-03T21:33:48.138Z,65.60
2023-03-03T21:36:20.374Z,65.60
2023-03-03T21:38:48.379Z,65.50
2023-03-03T21:41:17.124Z,65.90
2023-03-03T21:43:50.586Z,66.30
2023-03-03T21:46:20.209Z,66.40
2023-03-03T21:48:47.913Z,66.40
2023-03-03T21:51:15.442Z,66.40
2023-03-03T21:53:44.185Z,66.50
2023-03-03T21:56:13.859Z,66.50
2023-03-03T21:58:41.849Z,66.40
2023-03-03T22:01:09.833Z,66.00
2023-03-03T22:03:37.596Z,65.90
2023-03-03T22:06:05.321Z,66.10
2023-03-03T22:08:33.087Z,66.20
2023-03-03T22:11:00.695Z,66.20
2023-03-03T22:13:28.157Z,66.20
2023-03-03T22:15:55.514Z,66.20
2023-03-03T22:18:23.006Z,66.30
2023-03-03T22:20:50.714Z,67.00
2023-03-03T22:23:19.135Z,67.50
2023-03-03T22:25:46.656Z,67.60
2023-03-03T22:28:14.059Z,67.90
2023-03-03T22:30:41.345Z,68.10
2023-03-03T22:33:08.696Z,68.40
2023-03-03T22:35:36.011Z,68.50
2023-03-03T22:38:03.551Z,69.40
2023-03-03T22:40:31.974Z,69.10
2023-03-03T22:43:00.132Z,69.30
2023-03-03T22:45:27.651Z,69.20
2023-03-03T22:47:55.023Z,69.30
2023-03-03T22:50:22.584Z,69.40
2023-03-03T22:52:49.866Z,69.50
2023-03-03T22:55:17.309Z,69.80
2023-03-03T22:57:44.557Z,69.80
2023-03-03T23:00:13.095Z,70.00
2023-03-03T23:02:40.769Z,70.20
2023-03-03T23:05:11.197Z,70.70
2023-03-03T23:07:41.030Z,70.80
2023-03-03T23:10:09.481Z,70.90
2023-03-03T23:12:37.016Z,71.00
2023-03-03T23:15:13.404Z,71.00
2023-03-03T23:17:45.434Z,70.90
2023-03-03T23:20:15.565Z,71.00
2023-03-03T23:22:43.036Z,71.00
2023-03-03T23:25:10.969Z,71.30
2023-03-03T23:27:38.283Z,71.40
2023-03-03T23:30:07.231Z,71.60
2023-03-03T23:32:34.754Z,71.80
2023-03-03T23:35:02.154Z,71.80
2023-03-03T23:37:29.631Z,71.90
2023-03-03T23:39:56.996Z,72.10
2023-03-03T23:42:28.014Z,72.10
2023-03-03T23:44:55.448Z,72.40
2023-03-03T23:47:23.577Z,72.60
2023-03-03T23:49:50.860Z,72.70
2023-03-03T23:52:20.791Z,72.80
2023-03-03T23:54:48.295Z,72.90
2023-03-03T23:57:15.544Z,73.10
2023-03-03T23:59:42.796Z,73.10
